sensor_id;sensor_type;location;lat;lon;timestamp;temperature;humidity
66722;SHT31;53633;49.932;10.884;2023-10-19T00:01:13;9.50;87.98
66722;SHT31;53633;49.932;10.884;2023-10-19T00:03:40;9.51;88.00
66722;SHT31;53633;49.932;10.884;2023-10-19T00:06:06;9.52;88.33
66722;SHT31;53633;49.932;10.884;2023-10-19T00:08:33;9.52;88.41
66722;SHT31;53633;49.932;10.884;2023-10-19T00:10:59;9.52;88.25
66722;SHT31;53633;49.932;10.884;2023-10-19T00:13:28;9.51;88.31
66722;SHT31;53633;49.932;10.884;2023-10-19T00:15:55;9.50;88.22
66722;SHT31;53633;49.932;10.884;2023-10-19T00:18:23;9.50;88.22
66722;SHT31;53633;49.932;10.884;2023-10-19T00:20:51;9.55;88.31
66722;SHT31;53633;49.932;10.884;2023-10-19T00:23:19;9.54;88.20
66722;SHT31;53633;49.932;10.884;2023-10-19T00:25:46;9.57;88.19
66722;SHT31;53633;49.932;10.884;2023-10-19T00:28:13;9.59;87.90
66722;SHT31;53633;49.932;10.884;2023-10-19T00:30:41;9.54;88.23
66722;SHT31;53633;49.932;10.884;2023-10-19T00:33:08;9.52;88.04
66722;SHT31;53633;49.932;10.884;2023-10-19T00:35:34;9.54;88.22
66722;SHT31;53633;49.932;10.884;2023-10-19T00:38:01;9.52;88.26
66722;SHT31;53633;49.932;10.884;2023-10-19T00:40:28;9.52;88.27
66722;SHT31;53633;49.932;10.884;2023-10-19T00:42:55;9.51;88.36
66722;SHT31;53633;49.932;10.884;2023-10-19T00:45:21;9.50;88.44
66722;SHT31;53633;49.932;10.884;2023-10-19T00:47:49;9.50;88.63
66722;SHT31;53633;49.932;10.884;2023-10-19T00:50:16;9.48;88.66
66722;SHT31;53633;49.932;10.884;2023-10-19T00:52:43;9.50;88.77
66722;SHT31;53633;49.932;10.884;2023-10-19T00:55:10;9.52;88.87
66722;SHT31;53633;49.932;10.884;2023-10-19T00:57:37;9.51;88.95
66722;SHT31;53633;49.932;10.884;2023-10-19T01:00:04;9.51;89.01
66722;SHT31;53633;49.932;10.884;2023-10-19T01:02:31;9.54;88.98
66722;SHT31;53633;49.932;10.884;2023-10-19T01:04:59;9.52;89.03
66722;SHT31;53633;49.932;10.884;2023-10-19T01:07:27;9.52;89.03
66722;SHT31;53633;49.932;10.884;2023-10-19T01:09:55;9.54;89.05
66722;SHT31;53633;49.932;10.884;2023-10-19T01:12:22;9.48;89.54
66722;SHT31;53633;49.932;10.884;2023-10-19T01:15:04;9.45;89.41
66722;SHT31;53633;49.932;10.884;2023-10-19T01:17:30;9.48;89.30
66722;SHT31;53633;49.932;10.884;2023-10-19T01:19:57;9.55;89.50
66722;SHT31;53633;49.932;10.884;2023-10-19T01:22:25;9.55;89.36
66722;SHT31;53633;49.932;10.884;2023-10-19T01:24:53;9.57;89.61
66722;SHT31;53633;49.932;10.884;2023-10-19T01:27:20;9.51;90.39
66722;SHT31;53633;49.932;10.884;2023-10-19T01:29:47;9.54;90.12
66722;SHT31;53633;49.932;10.884;2023-10-19T01:32:13;9.57;89.77
66722;SHT31;53633;49.932;10.884;2023-10-19T01:34:40;9.55;89.72
66722;SHT31;53633;49.932;10.884;2023-10-19T01:37:07;9.51;89.63
66722;SHT31;53633;49.932;10.884;2023-10-19T01:39:34;9.57;89.56
66722;SHT31;53633;49.932;10.884;2023-10-19T01:42:02;9.51;89.86
66722;SHT31;53633;49.932;10.884;2023-10-19T01:44:29;9.55;89.63
66722;SHT31;53633;49.932;10.884;2023-10-19T01:46:56;9.55;89.60
66722;SHT31;53633;49.932;10.884;2023-10-19T01:49:23;9.55;89.65
66722;SHT31;53633;49.932;10.884;2023-10-19T01:51:50;9.55;89.40
66722;SHT31;53633;49.932;10.884;2023-10-19T01:54:16;9.50;89.50
66722;SHT31;53633;49.932;10.884;2023-10-19T01:56:43;9.45;89.83
66722;SHT31;53633;49.932;10.884;2023-10-19T01:59:11;9.52;89.48
66722;SHT31;53633;49.932;10.884;2023-10-19T02:01:38;9.55;89.85
66722;SHT31;53633;49.932;10.884;2023-10-19T02:04:05;9.58;89.54
66722;SHT31;53633;49.932;10.884;2023-10-19T02:06:33;9.54;89.99
66722;SHT31;53633;49.932;10.884;2023-10-19T02:09:01;9.55;89.50
66722;SHT31;53633;49.932;10.884;2023-10-19T02:11:28;9.59;89.76
66722;SHT31;53633;49.932;10.884;2023-10-19T02:13:56;9.54;89.96
66722;SHT31;53633;49.932;10.884;2023-10-19T02:16:24;9.54;89.80
66722;SHT31;53633;49.932;10.884;2023-10-19T02:18:51;9.48;89.92
66722;SHT31;53633;49.932;10.884;2023-10-19T02:21:19;9.47;90.03
66722;SHT31;53633;49.932;10.884;2023-10-19T02:23:45;9.51;89.99
66722;SHT31;53633;49.932;10.884;2023-10-19T02:26:12;9.51;90.34
66722;SHT31;53633;49.932;10.884;2023-10-19T02:28:39;9.51;89.97
66722;SHT31;53633;49.932;10.884;2023-10-19T02:31:06;9.41;90.31
66722;SHT31;53633;49.932;10.884;2023-10-19T02:33:34;9.36;90.49
66722;SHT31;53633;49.932;10.884;2023-10-19T02:36:00;9.31;90.93
66722;SHT31;53633;49.932;10.884;2023-10-19T02:38:27;9.27;91.99
66722;SHT31;53633;49.932;10.884;2023-10-19T02:40:54;9.22;92.17
66722;SHT31;53633;49.932;10.884;2023-10-19T02:43:20;9.23;91.86
66722;SHT31;53633;49.932;10.884;2023-10-19T02:45:47;9.15;92.59
66722;SHT31;53633;49.932;10.884;2023-10-19T02:48:14;9.05;92.76
66722;SHT31;53633;49.932;10.884;2023-10-19T02:50:42;9.02;92.93
66722;SHT31;53633;49.932;10.884;2023-10-19T02:53:09;9.03;93.63
66722;SHT31;53633;49.932;10.884;2023-10-19T02:55:36;8.99;93.34
66722;SHT31;53633;49.932;10.884;2023-10-19T02:58:02;9.02;93.31
66722;SHT31;53633;49.932;10.884;2023-10-19T03:00:30;9.10;93.17
66722;SHT31;53633;49.932;10.884;2023-10-19T03:02:57;9.12;92.88
66722;SHT31;53633;49.932;10.884;2023-10-19T03:05:24;9.12;92.61
66722;SHT31;53633;49.932;10.884;2023-10-19T03:07:52;9.12;92.69
66722;SHT31;53633;49.932;10.884;2023-10-19T03:10:19;9.12;92.92
66722;SHT31;53633;49.932;10.884;2023-10-19T03:12:45;9.13;92.87
66722;SHT31;53633;49.932;10.884;2023-10-19T03:15:12;9.16;92.83
66722;SHT31;53633;49.932;10.884;2023-10-19T03:17:39;9.15;92.74
66722;SHT31;53633;49.932;10.884;2023-10-19T03:20:10;9.13;92.74
66722;SHT31;53633;49.932;10.884;2023-10-19T03:22:37;9.10;92.74
66722;SHT31;53633;49.932;10.884;2023-10-19T03:25:07;9.15;92.52
66722;SHT31;53633;49.932;10.884;2023-10-19T03:27:34;9.07;92.61
66722;SHT31;53633;49.932;10.884;2023-10-19T03:30:00;9.07;92.63
66722;SHT31;53633;49.932;10.884;2023-10-19T03:32:27;9.10;92.73
66722;SHT31;53633;49.932;10.884;2023-10-19T03:34:54;9.05;92.74
66722;SHT31;53633;49.932;10.884;2023-10-19T03:37:21;9.00;92.78
66722;SHT31;53633;49.932;10.884;2023-10-19T03:39:48;8.99;92.75
66722;SHT31;53633;49.932;10.884;2023-10-19T03:42:16;9.03;92.46
66722;SHT31;53633;49.932;10.884;2023-10-19T03:44:43;9.06;92.59
66722;SHT31;53633;49.932;10.884;2023-10-19T03:47:10;9.09;92.38
66722;SHT31;53633;49.932;10.884;2023-10-19T03:49:37;9.06;92.48
66722;SHT31;53633;49.932;10.884;2023-10-19T03:52:04;9.06;92.64
66722;SHT31;53633;49.932;10.884;2023-10-19T03:54:30;9.03;92.56
66722;SHT31;53633;49.932;10.884;2023-10-19T03:56:57;9.09;92.53
66722;SHT31;53633;49.932;10.884;2023-10-19T03:59:25;9.10;92.39
66722;SHT31;53633;49.932;10.884;2023-10-19T04:01:52;9.15;92.36
66722;SHT31;53633;49.932;10.884;2023-10-19T04:04:19;9.19;92.17
66722;SHT31;53633;49.932;10.884;2023-10-19T04:06:46;9.19;92.10
66722;SHT31;53633;49.932;10.884;2023-10-19T04:09:12;9.19;92.15
66722;SHT31;53633;49.932;10.884;2023-10-19T04:11:39;9.23;92.12
66722;SHT31;53633;49.932;10.884;2023-10-19T04:14:06;9.23;92.28
66722;SHT31;53633;49.932;10.884;2023-10-19T04:16:34;9.22;92.27
66722;SHT31;53633;49.932;10.884;2023-10-19T04:19:00;9.20;92.40
66722;SHT31;53633;49.932;10.884;2023-10-19T04:21:27;9.23;92.30
66722;SHT31;53633;49.932;10.884;2023-10-19T04:23:54;9.26;92.38
66722;SHT31;53633;49.932;10.884;2023-10-19T04:26:20;9.26;92.41
66722;SHT31;53633;49.932;10.884;2023-10-19T04:28:47;9.23;92.44
66722;SHT31;53633;49.932;10.884;2023-10-19T04:31:14;9.26;92.55
66722;SHT31;53633;49.932;10.884;2023-10-19T04:33:42;9.26;92.47
66722;SHT31;53633;49.932;10.884;2023-10-19T04:36:09;9.23;92.59
66722;SHT31;53633;49.932;10.884;2023-10-19T04:38:35;9.27;92.46
66722;SHT31;53633;49.932;10.884;2023-10-19T04:41:06;9.26;92.65
66722;SHT31;53633;49.932;10.884;2023-10-19T04:43:33;9.33;92.32
66722;SHT31;53633;49.932;10.884;2023-10-19T04:46:00;9.31;92.43
66722;SHT31;53633;49.932;10.884;2023-10-19T04:48:26;9.34;92.47
66722;SHT31;53633;49.932;10.884;2023-10-19T04:50:54;9.40;92.36
66722;SHT31;53633;49.932;10.884;2023-10-19T04:53:21;9.44;92.13
66722;SHT31;53633;49.932;10.884;2023-10-19T04:55:48;9.43;92.15
66722;SHT31;53633;49.932;10.884;2023-10-19T04:58:14;9.43;92.46
66722;SHT31;53633;49.932;10.884;2023-10-19T05:00:41;9.45;92.26
66722;SHT31;53633;49.932;10.884;2023-10-19T05:03:08;9.50;92.25
66722;SHT31;53633;49.932;10.884;2023-10-19T05:05:34;9.50;92.21
66722;SHT31;53633;49.932;10.884;2023-10-19T05:08:03;9.55;91.89
66722;SHT31;53633;49.932;10.884;2023-10-19T05:10:29;9.58;91.97
66722;SHT31;53633;49.932;10.884;2023-10-19T05:12:56;9.62;91.83
66722;SHT31;53633;49.932;10.884;2023-10-19T05:15:23;9.68;91.71
66722;SHT31;53633;49.932;10.884;2023-10-19T05:17:49;9.57;92.21
66722;SHT31;53633;49.932;10.884;2023-10-19T05:20:16;9.58;91.73
66722;SHT31;53633;49.932;10.884;2023-10-19T05:22:43;9.62;91.70
66722;SHT31;53633;49.932;10.884;2023-10-19T05:25:11;9.59;91.95
66722;SHT31;53633;49.932;10.884;2023-10-19T05:27:38;9.62;91.92
66722;SHT31;53633;49.932;10.884;2023-10-19T05:30:05;9.59;92.03
66722;SHT31;53633;49.932;10.884;2023-10-19T05:32:32;9.64;91.92
66722;SHT31;53633;49.932;10.884;2023-10-19T05:34:59;9.65;91.94
66722;SHT31;53633;49.932;10.884;2023-10-19T05:37:26;9.62;91.90
66722;SHT31;53633;49.932;10.884;2023-10-19T05:39:53;9.61;92.12
66722;SHT31;53633;49.932;10.884;2023-10-19T05:42:21;9.59;92.11
66722;SHT31;53633;49.932;10.884;2023-10-19T05:44:48;9.59;92.13
66722;SHT31;53633;49.932;10.884;2023-10-19T05:47:14;9.58;92.21
66722;SHT31;53633;49.932;10.884;2023-10-19T05:49:41;9.64;92.39
66722;SHT31;53633;49.932;10.884;2023-10-19T05:52:08;9.70;92.15
66722;SHT31;53633;49.932;10.884;2023-10-19T05:54:34;9.71;92.20
66722;SHT31;53633;49.932;10.884;2023-10-19T05:57:01;9.74;92.17
66722;SHT31;53633;49.932;10.884;2023-10-19T05:59:29;9.83;91.93
66722;SHT31;53633;49.932;10.884;2023-10-19T06:01:56;9.82;91.92
66722;SHT31;53633;49.932;10.884;2023-10-19T06:04:22;9.79;91.94
66722;SHT31;53633;49.932;10.884;2023-10-19T06:06:49;9.78;91.96
66722;SHT31;53633;49.932;10.884;2023-10-19T06:09:16;9.83;91.95
66722;SHT31;53633;49.932;10.884;2023-10-19T06:11:42;9.83;91.66
66722;SHT31;53633;49.932;10.884;2023-10-19T06:14:09;9.78;91.92
66722;SHT31;53633;49.932;10.884;2023-10-19T06:16:37;9.77;92.01
66722;SHT31;53633;49.932;10.884;2023-10-19T06:19:05;9.75;92.27
66722;SHT31;53633;49.932;10.884;2023-10-19T06:21:32;9.75;92.59
66722;SHT31;53633;49.932;10.884;2023-10-19T06:23:58;9.78;92.47
66722;SHT31;53633;49.932;10.884;2023-10-19T06:26:25;9.77;92.34
66722;SHT31;53633;49.932;10.884;2023-10-19T06:28:52;9.77;92.71
66722;SHT31;53633;49.932;10.884;2023-10-19T06:31:18;9.74;92.44
66722;SHT31;53633;49.932;10.884;2023-10-19T06:33:46;9.82;92.75
66722;SHT31;53633;49.932;10.884;2023-10-19T06:36:13;9.82;92.60
66722;SHT31;53633;49.932;10.884;2023-10-19T06:38:40;9.81;92.73
66722;SHT31;53633;49.932;10.884;2023-10-19T06:41:13;9.79;92.89
66722;SHT31;53633;49.932;10.884;2023-10-19T06:43:40;9.81;92.96
66722;SHT31;53633;49.932;10.884;2023-10-19T06:46:08;9.82;93.02
66722;SHT31;53633;49.932;10.884;2023-10-19T06:48:34;9.86;92.96
66722;SHT31;53633;49.932;10.884;2023-10-19T06:51:03;9.92;92.94
66722;SHT31;53633;49.932;10.884;2023-10-19T06:53:29;9.96;93.06
66722;SHT31;53633;49.932;10.884;2023-10-19T06:55:56;9.96;93.12
66722;SHT31;53633;49.932;10.884;2023-10-19T06:58:23;9.99;93.18
66722;SHT31;53633;49.932;10.884;2023-10-19T07:00:50;9.99;93.21
66722;SHT31;53633;49.932;10.884;2023-10-19T07:03:17;10.03;93.36
66722;SHT31;53633;49.932;10.884;2023-10-19T07:05:43;10.10;93.04
66722;SHT31;53633;49.932;10.884;2023-10-19T07:08:11;10.16;93.04
66722;SHT31;53633;49.932;10.884;2023-10-19T07:10:38;10.16;93.20
66722;SHT31;53633;49.932;10.884;2023-10-19T07:13:05;10.12;93.27
66722;SHT31;53633;49.932;10.884;2023-10-19T07:15:32;10.16;93.11
66722;SHT31;53633;49.932;10.884;2023-10-19T07:17:59;10.13;92.88
66722;SHT31;53633;49.932;10.884;2023-10-19T07:20:26;10.17;93.22
66722;SHT31;53633;49.932;10.884;2023-10-19T07:22:53;10.20;93.36
66722;SHT31;53633;49.932;10.884;2023-10-19T07:25:21;10.23;93.37
66722;SHT31;53633;49.932;10.884;2023-10-19T07:27:48;10.26;93.52
66722;SHT31;53633;49.932;10.884;2023-10-19T07:30:16;10.32;93.18
66722;SHT31;53633;49.932;10.884;2023-10-19T07:32:42;10.41;93.06
66722;SHT31;53633;49.932;10.884;2023-10-19T07:35:09;10.40;93.04
66722;SHT31;53633;49.932;10.884;2023-10-19T07:37:36;10.48;92.74
66722;SHT31;53633;49.932;10.884;2023-10-19T07:40:03;10.44;92.79
66722;SHT31;53633;49.932;10.884;2023-10-19T07:42:31;10.50;92.75
66722;SHT31;53633;49.932;10.884;2023-10-19T07:44:58;10.69;92.32
66722;SHT31;53633;49.932;10.884;2023-10-19T07:47:25;11.01;91.96
66722;SHT31;53633;49.932;10.884;2023-10-19T07:49:51;11.60;90.82
66722;SHT31;53633;49.932;10.884;2023-10-19T07:52:18;11.66;89.79
66722;SHT31;53633;49.932;10.884;2023-10-19T07:54:45;11.67;89.01
66722;SHT31;53633;49.932;10.884;2023-10-19T07:57:11;11.69;89.30
66722;SHT31;53633;49.932;10.884;2023-10-19T07:59:39;11.54;88.92
66722;SHT31;53633;49.932;10.884;2023-10-19T08:02:06;11.42;89.32
66722;SHT31;53633;49.932;10.884;2023-10-19T08:04:33;11.47;89.04
66722;SHT31;53633;49.932;10.884;2023-10-19T08:07:00;11.42;89.38
66722;SHT31;53633;49.932;10.884;2023-10-19T08:09:26;11.49;89.27
66722;SHT31;53633;49.932;10.884;2023-10-19T08:11:53;11.64;89.12
66722;SHT31;53633;49.932;10.884;2023-10-19T08:14:20;11.78;88.75
66722;SHT31;53633;49.932;10.884;2023-10-19T08:16:48;11.92;88.26
66722;SHT31;53633;49.932;10.884;2023-10-19T08:19:14;12.02;87.90
66722;SHT31;53633;49.932;10.884;2023-10-19T08:21:41;12.16;87.86
66722;SHT31;53633;49.932;10.884;2023-10-19T08:24:08;12.33;87.44
66722;SHT31;53633;49.932;10.884;2023-10-19T08:26:35;12.40;86.50
66722;SHT31;53633;49.932;10.884;2023-10-19T08:29:01;12.29;87.12
66722;SHT31;53633;49.932;10.884;2023-10-19T08:31:28;12.39;87.10
66722;SHT31;53633;49.932;10.884;2023-10-19T08:33:56;12.59;86.58
66722;SHT31;53633;49.932;10.884;2023-10-19T08:36:23;12.77;85.95
66722;SHT31;53633;49.932;10.884;2023-10-19T08:38:49;12.91;85.22
66722;SHT31;53633;49.932;10.884;2023-10-19T08:41:16;12.91;84.35
66722;SHT31;53633;49.932;10.884;2023-10-19T08:43:43;12.94;84.69
66722;SHT31;53633;49.932;10.884;2023-10-19T08:46:10;13.00;84.51
66722;SHT31;53633;49.932;10.884;2023-10-19T08:48:37;13.00;83.84
66722;SHT31;53633;49.932;10.884;2023-10-19T08:51:09;12.98;83.63
66722;SHT31;53633;49.932;10.884;2023-10-19T08:53:36;12.80;84.19
66722;SHT31;53633;49.932;10.884;2023-10-19T08:56:04;12.79;85.15
66722;SHT31;53633;49.932;10.884;2023-10-19T08:58:31;12.74;85.04
66722;SHT31;53633;49.932;10.884;2023-10-19T09:00:57;12.84;84.62
66722;SHT31;53633;49.932;10.884;2023-10-19T09:03:24;13.02;84.26
66722;SHT31;53633;49.932;10.884;2023-10-19T09:05:54;13.16;83.81
66722;SHT31;53633;49.932;10.884;2023-10-19T09:08:22;13.25;83.63
66722;SHT31;53633;49.932;10.884;2023-10-19T09:10:50;13.31;83.30
66722;SHT31;53633;49.932;10.884;2023-10-19T09:13:17;13.45;83.82
66722;SHT31;53633;49.932;10.884;2023-10-19T09:15:44;13.55;83.44
66722;SHT31;53633;49.932;10.884;2023-10-19T09:18:14;13.70;82.46
66722;SHT31;53633;49.932;10.884;2023-10-19T09:20:42;13.53;82.08
66722;SHT31;53633;49.932;10.884;2023-10-19T09:23:09;13.59;82.41
66722;SHT31;53633;49.932;10.884;2023-10-19T09:25:37;13.53;82.38
66722;SHT31;53633;49.932;10.884;2023-10-19T09:28:04;13.52;82.66
66722;SHT31;53633;49.932;10.884;2023-10-19T09:30:31;13.53;82.11
66722;SHT31;53633;49.932;10.884;2023-10-19T09:32:58;13.43;82.40
66722;SHT31;53633;49.932;10.884;2023-10-19T09:35:27;13.36;82.22
66722;SHT31;53633;49.932;10.884;2023-10-19T09:37:54;13.52;82.37
66722;SHT31;53633;49.932;10.884;2023-10-19T09:40:22;13.53;82.55
66722;SHT31;53633;49.932;10.884;2023-10-19T09:42:53;13.70;82.15
66722;SHT31;53633;49.932;10.884;2023-10-19T09:45:24;13.67;82.82
66722;SHT31;53633;49.932;10.884;2023-10-19T09:47:54;13.63;82.51
66722;SHT31;53633;49.932;10.884;2023-10-19T09:50:21;13.86;82.22
66722;SHT31;53633;49.932;10.884;2023-10-19T09:52:48;13.98;82.11
66722;SHT31;53633;49.932;10.884;2023-10-19T09:55:22;14.00;81.96
66722;SHT31;53633;49.932;10.884;2023-10-19T09:57:57;13.97;82.15
66722;SHT31;53633;49.932;10.884;2023-10-19T10:00:29;14.07;82.47
66722;SHT31;53633;49.932;10.884;2023-10-19T10:02:56;14.14;81.36
66722;SHT31;53633;49.932;10.884;2023-10-19T10:05:44;14.14;82.09
66722;SHT31;53633;49.932;10.884;2023-10-19T10:08:29;14.20;81.41
66722;SHT31;53633;49.932;10.884;2023-10-19T10:10:56;14.26;81.39
66722;SHT31;53633;49.932;10.884;2023-10-19T10:13:37;14.32;81.67
66722;SHT31;53633;49.932;10.884;2023-10-19T10:16:04;14.59;81.49
66722;SHT31;53633;49.932;10.884;2023-10-19T10:18:34;14.62;80.40
66722;SHT31;53633;49.932;10.884;2023-10-19T10:21:10;14.60;80.96
66722;SHT31;53633;49.932;10.884;2023-10-19T10:23:41;14.72;80.73
66722;SHT31;53633;49.932;10.884;2023-10-19T10:26:09;14.75;80.73
66722;SHT31;53633;49.932;10.884;2023-10-19T10:28:38;14.81;80.82
66722;SHT31;53633;49.932;10.884;2023-10-19T10:31:12;14.94;81.02
66722;SHT31;53633;49.932;10.884;2023-10-19T10:33:44;15.03;80.18
66722;SHT31;53633;49.932;10.884;2023-10-19T10:36:11;14.94;80.97
66722;SHT31;53633;49.932;10.884;2023-10-19T10:38:39;14.81;81.33
66722;SHT31;53633;49.932;10.884;2023-10-19T10:41:05;14.70;80.87
66722;SHT31;53633;49.932;10.884;2023-10-19T10:43:32;14.90;81.15
66722;SHT31;53633;49.932;10.884;2023-10-19T10:46:04;14.87;80.74
66722;SHT31;53633;49.932;10.884;2023-10-19T10:48:31;14.75;81.39
66722;SHT31;53633;49.932;10.884;2023-10-19T10:50:58;14.69;81.92
66722;SHT31;53633;49.932;10.884;2023-10-19T10:53:26;14.69;81.62
66722;SHT31;53633;49.932;10.884;2023-10-19T10:55:52;14.66;81.89
66722;SHT31;53633;49.932;10.884;2023-10-19T10:58:19;14.75;81.92
66722;SHT31;53633;49.932;10.884;2023-10-19T11:00:46;14.69;81.88
66722;SHT31;53633;49.932;10.884;2023-10-19T11:03:15;14.83;81.65
66722;SHT31;53633;49.932;10.884;2023-10-19T11:05:41;14.90;81.60
66722;SHT31;53633;49.932;10.884;2023-10-19T11:08:09;14.90;81.60
66722;SHT31;53633;49.932;10.884;2023-10-19T11:10:36;14.96;81.48
66722;SHT31;53633;49.932;10.884;2023-10-19T11:13:04;15.01;81.46
66722;SHT31;53633;49.932;10.884;2023-10-19T11:15:31;15.03;80.90
66722;SHT31;53633;49.932;10.884;2023-10-19T11:17:58;14.97;81.08
66722;SHT31;53633;49.932;10.884;2023-10-19T11:20:26;15.04;81.45
66722;SHT31;53633;49.932;10.884;2023-10-19T11:22:54;15.08;81.52
66722;SHT31;53633;49.932;10.884;2023-10-19T11:25:22;15.14;80.89
66722;SHT31;53633;49.932;10.884;2023-10-19T11:27:49;15.32;80.54
66722;SHT31;53633;49.932;10.884;2023-10-19T11:30:22;15.38;80.40
66722;SHT31;53633;49.932;10.884;2023-10-19T11:32:50;15.52;79.91
66722;SHT31;53633;49.932;10.884;2023-10-19T11:35:16;15.54;80.00
66722;SHT31;53633;49.932;10.884;2023-10-19T11:37:48;15.58;79.90
66722;SHT31;53633;49.932;10.884;2023-10-19T11:40:15;15.66;79.83
66722;SHT31;53633;49.932;10.884;2023-10-19T11:42:42;15.67;79.82
66722;SHT31;53633;49.932;10.884;2023-10-19T11:45:09;15.62;80.23
66722;SHT31;53633;49.932;10.884;2023-10-19T11:47:36;15.58;80.46
66722;SHT31;53633;49.932;10.884;2023-10-19T11:50:03;15.56;80.24
66722;SHT31;53633;49.932;10.884;2023-10-19T11:52:30;15.61;80.19
66722;SHT31;53633;49.932;10.884;2023-10-19T11:54:58;15.59;80.46
66722;SHT31;53633;49.932;10.884;2023-10-19T11:57:25;15.62;80.77
66722;SHT31;53633;49.932;10.884;2023-10-19T11:59:51;15.55;80.90
66722;SHT31;53633;49.932;10.884;2023-10-19T12:02:22;15.52;81.02
66722;SHT31;53633;49.932;10.884;2023-10-19T12:04:49;15.58;81.24
66722;SHT31;53633;49.932;10.884;2023-10-19T12:07:15;15.55;81.05
66722;SHT31;53633;49.932;10.884;2023-10-19T12:09:42;15.48;81.65
66722;SHT31;53633;49.932;10.884;2023-10-19T12:12:10;15.44;81.37
66722;SHT31;53633;49.932;10.884;2023-10-19T12:14:37;15.49;81.63
66722;SHT31;53633;49.932;10.884;2023-10-19T12:17:04;15.54;81.67
66722;SHT31;53633;49.932;10.884;2023-10-19T12:19:31;15.61;81.49
66722;SHT31;53633;49.932;10.884;2023-10-19T12:21:57;15.63;81.66
66722;SHT31;53633;49.932;10.884;2023-10-19T12:24:24;15.65;81.96
66722;SHT31;53633;49.932;10.884;2023-10-19T12:26:51;15.69;81.79
66722;SHT31;53633;49.932;10.884;2023-10-19T12:29:19;15.76;81.66
66722;SHT31;53633;49.932;10.884;2023-10-19T12:31:45;15.82;81.61
66722;SHT31;53633;49.932;10.884;2023-10-19T12:34:13;15.89;81.68
66722;SHT31;53633;49.932;10.884;2023-10-19T12:36:39;15.86;81.72
66722;SHT31;53633;49.932;10.884;2023-10-19T12:39:06;15.83;81.58
66722;SHT31;53633;49.932;10.884;2023-10-19T12:41:36;15.90;81.53
66722;SHT31;53633;49.932;10.884;2023-10-19T12:44:03;15.92;81.91
66722;SHT31;53633;49.932;10.884;2023-10-19T12:46:31;15.94;81.96
66722;SHT31;53633;49.932;10.884;2023-10-19T12:48:58;15.94;81.85
66722;SHT31;53633;49.932;10.884;2023-10-19T12:51:25;15.93;81.94
66722;SHT31;53633;49.932;10.884;2023-10-19T12:53:52;15.92;82.15
66722;SHT31;53633;49.932;10.884;2023-10-19T12:56:18;15.96;82.05
66722;SHT31;53633;49.932;10.884;2023-10-19T12:58:45;15.87;82.23
66722;SHT31;53633;49.932;10.884;2023-10-19T13:01:12;15.92;82.30
66722;SHT31;53633;49.932;10.884;2023-10-19T13:03:40;15.92;82.07
66722;SHT31;53633;49.932;10.884;2023-10-19T13:06:07;15.94;82.07
66722;SHT31;53633;49.932;10.884;2023-10-19T13:08:33;15.92;82.45
66722;SHT31;53633;49.932;10.884;2023-10-19T13:11:00;15.93;82.54
66722;SHT31;53633;49.932;10.884;2023-10-19T13:13:41;15.93;82.51
66722;SHT31;53633;49.932;10.884;2023-10-19T13:16:08;15.90;82.33
66722;SHT31;53633;49.932;10.884;2023-10-19T13:18:35;15.94;82.13
66722;SHT31;53633;49.932;10.884;2023-10-19T13:21:03;15.97;82.41
66722;SHT31;53633;49.932;10.884;2023-10-19T13:23:30;15.96;82.34
66722;SHT31;53633;49.932;10.884;2023-10-19T13:25:57;15.97;82.03
66722;SHT31;53633;49.932;10.884;2023-10-19T13:28:23;15.94;82.13
66722;SHT31;53633;49.932;10.884;2023-10-19T13:30:51;15.87;82.58
66722;SHT31;53633;49.932;10.884;2023-10-19T13:33:18;15.87;82.68
66722;SHT31;53633;49.932;10.884;2023-10-19T13:35:45;15.76;82.84
66722;SHT31;53633;49.932;10.884;2023-10-19T13:38:15;15.75;82.97
66722;SHT31;53633;49.932;10.884;2023-10-19T13:40:43;15.66;83.26
66722;SHT31;53633;49.932;10.884;2023-10-19T13:43:10;15.61;83.60
66722;SHT31;53633;49.932;10.884;2023-10-19T13:45:37;15.51;83.78
66722;SHT31;53633;49.932;10.884;2023-10-19T13:48:05;15.48;83.79
66722;SHT31;53633;49.932;10.884;2023-10-19T13:50:33;15.45;84.00
66722;SHT31;53633;49.932;10.884;2023-10-19T13:53:00;15.38;84.32
66722;SHT31;53633;49.932;10.884;2023-10-19T13:55:29;15.30;84.56
66722;SHT31;53633;49.932;10.884;2023-10-19T13:57:56;15.25;84.83
66722;SHT31;53633;49.932;10.884;2023-10-19T14:00:23;15.21;84.92
66722;SHT31;53633;49.932;10.884;2023-10-19T14:02:51;15.12;85.06
66722;SHT31;53633;49.932;10.884;2023-10-19T14:05:18;15.08;85.41
66722;SHT31;53633;49.932;10.884;2023-10-19T14:07:45;15.08;85.70
66722;SHT31;53633;49.932;10.884;2023-10-19T14:10:13;15.06;85.70
66722;SHT31;53633;49.932;10.884;2023-10-19T14:12:42;14.98;86.03
66722;SHT31;53633;49.932;10.884;2023-10-19T14:15:14;14.98;86.36
66722;SHT31;53633;49.932;10.884;2023-10-19T14:17:41;15.04;87.22
66722;SHT31;53633;49.932;10.884;2023-10-19T14:20:09;15.07;87.61
66722;SHT31;53633;49.932;10.884;2023-10-19T14:22:36;15.08;87.93
66722;SHT31;53633;49.932;10.884;2023-10-19T14:25:03;15.14;88.15
66722;SHT31;53633;49.932;10.884;2023-10-19T14:27:30;15.18;88.68
66722;SHT31;53633;49.932;10.884;2023-10-19T14:29:58;15.21;88.20
66722;SHT31;53633;49.932;10.884;2023-10-19T14:32:25;15.24;88.50
66722;SHT31;53633;49.932;10.884;2023-10-19T14:34:51;15.21;88.44
66722;SHT31;53633;49.932;10.884;2023-10-19T14:37:19;15.21;88.52
66722;SHT31;53633;49.932;10.884;2023-10-19T14:39:45;15.16;88.31
66722;SHT31;53633;49.932;10.884;2023-10-19T14:42:12;15.10;88.53
66722;SHT31;53633;49.932;10.884;2023-10-19T14:44:38;15.06;88.37
66722;SHT31;53633;49.932;10.884;2023-10-19T14:47:06;15.03;88.29
66722;SHT31;53633;49.932;10.884;2023-10-19T14:49:33;15.01;88.09
66722;SHT31;53633;49.932;10.884;2023-10-19T14:52:00;15.01;88.37
66722;SHT31;53633;49.932;10.884;2023-10-19T14:54:29;14.98;88.60
66722;SHT31;53633;49.932;10.884;2023-10-19T14:56:56;14.94;88.87
66722;SHT31;53633;49.932;10.884;2023-10-19T14:59:23;14.87;89.16
66722;SHT31;53633;49.932;10.884;2023-10-19T15:01:50;14.87;89.19
66722;SHT31;53633;49.932;10.884;2023-10-19T15:04:18;14.81;89.64
66722;SHT31;53633;49.932;10.884;2023-10-19T15:06:44;14.84;89.27
66722;SHT31;53633;49.932;10.884;2023-10-19T15:09:11;14.84;89.33
66722;SHT31;53633;49.932;10.884;2023-10-19T15:11:38;14.83;89.59
66722;SHT31;53633;49.932;10.884;2023-10-19T15:14:04;14.84;89.55
66722;SHT31;53633;49.932;10.884;2023-10-19T15:16:31;14.80;89.79
66722;SHT31;53633;49.932;10.884;2023-10-19T15:18:58;14.76;89.65
66722;SHT31;53633;49.932;10.884;2023-10-19T15:21:26;14.77;89.73
66722;SHT31;53633;49.932;10.884;2023-10-19T15:23:53;14.72;90.03